createdAt,value
2018-09-20T00:01:38.465Z,17.30
2018-09-20T00:04:07.334Z,17.20
2018-09-20T00:06:35.733Z,17.20
2018-09-20T00:09:05.205Z,17.10
2018-09-20T00:11:33.631Z,17.00
2018-09-20T00:14:02.007Z,16.90
2018-09-20T00:16:30.560Z,16.80
2018-09-20T00:18:59.111Z,16.90
2018-09-20T00:21:27.912Z,17.00
2018-09-20T00:23:56.322Z,16.90
2018-09-20T00:26:24.781Z,16.90
2018-09-20T00:28:53.231Z,16.80
2018-09-20T00:31:21.753Z,16.80
2018-09-20T00:33:50.170Z,16.80
2018-09-20T00:36:18.650Z,16.80
2018-09-20T00:38:47.161Z,17.00
2018-09-20T00:41:15.565Z,17.10
2018-09-20T00:43:44.227Z,17.20
2018-09-20T00:46:12.621Z,17.20
2018-09-20T00:48:41.051Z,17.10
2018-09-20T00:51:09.555Z,17.10
2018-09-20T00:53:38.410Z,17.10
2018-09-20T00:56:06.807Z,17.10
2018-09-20T00:58:35.218Z,17.10
2018-09-20T01:01:03.700Z,17.10
2018-09-20T01:03:32.931Z,17.20
2018-09-20T01:06:01.549Z,17.20
2018-09-20T01:08:29.869Z,17.30
2018-09-20T01:10:58.546Z,17.30
2018-09-20T01:13:26.996Z,17.30
2018-09-20T01:15:56.510Z,17.30
2018-09-20T01:18:24.988Z,17.30
2018-09-20T01:20:53.508Z,17.30
2018-09-20T01:23:22.086Z,17.30
2018-09-20T01:25:50.547Z,17.30
2018-09-20T01:28:21.737Z,17.30
2018-09-20T01:30:50.460Z,17.40
2018-09-20T01:33:18.828Z,17.40
2018-09-20T01:35:47.388Z,17.40
2018-09-20T01:38:15.805Z,17.30
2018-09-20T01:40:44.453Z,17.20
2018-09-20T01:43:12.964Z,17.10
2018-09-20T01:45:41.503Z,17.10
2018-09-20T01:48:10.593Z,17.10
2018-09-20T01:50:39.076Z,17.00
2018-09-20T01:53:07.455Z,17.00
2018-09-20T01:55:35.863Z,17.00
2018-09-20T01:58:04.363Z,17.00
2018-09-20T02:00:33.587Z,16.90
2018-09-20T02:03:02.046Z,16.90
2018-09-20T02:05:30.475Z,16.90
2018-09-20T02:07:59.038Z,16.90
2018-09-20T02:10:28.506Z,16.80
2018-09-20T02:12:56.943Z,16.80
2018-09-20T02:15:25.414Z,16.70
2018-09-20T02:17:54.233Z,16.70
2018-09-20T02:20:23.310Z,16.70
2018-09-20T02:22:51.751Z,16.70
2018-09-20T02:25:20.184Z,16.70
2018-09-20T02:27:48.651Z,16.70
2018-09-20T02:30:17.385Z,16.70
2018-09-20T02:32:46.581Z,16.70
2018-09-20T02:35:14.994Z,16.70
2018-09-20T02:37:43.448Z,16.70
2018-09-20T02:40:11.878Z,16.70
2018-09-20T02:42:40.470Z,16.70
2018-09-20T02:45:08.855Z,16.70
2018-09-20T02:47:37.329Z,16.60
2018-09-20T02:50:06.010Z,16.50
2018-09-20T02:52:34.380Z,16.40
2018-09-20T02:55:02.945Z,16.30
2018-09-20T02:57:31.666Z,16.30
2018-09-20T03:00:00.114Z,16.30
2018-09-20T03:02:28.796Z,16.20
2018-09-20T03:04:57.415Z,16.10
2018-09-20T03:07:26.249Z,16.10
2018-09-20T03:09:54.643Z,16.20
2018-09-20T03:12:23.056Z,16.20
2018-09-20T03:14:51.540Z,16.10
2018-09-20T03:17:19.949Z,16.20
2018-09-20T03:19:48.386Z,16.10
2018-09-20T03:22:16.780Z,16.20
2018-09-20T03:24:45.157Z,16.20
2018-09-20T03:27:13.530Z,16.20
2018-09-20T03:29:42.019Z,16.30
2018-09-20T03:32:10.670Z,16.30
2018-09-20T03:34:39.157Z,16.40
2018-09-20T03:37:08.070Z,16.40
2018-09-20T03:39:36.565Z,16.40
2018-09-20T03:42:04.899Z,16.50
2018-09-20T03:44:33.366Z,16.50
2018-09-20T03:47:01.769Z,16.60
2018-09-20T03:49:30.184Z,16.50
2018-09-20T03:51:58.659Z,16.50
2018-09-20T03:54:27.079Z,16.50
2018-09-20T03:56:55.483Z,16.40
2018-09-20T03:59:23.956Z,16.40
2018-09-20T04:01:52.376Z,16.40
2018-09-20T04:04:20.821Z,16.40
2018-09-20T04:06:49.214Z,16.30
2018-09-20T04:09:17.793Z,16.20
2018-09-20T04:11:46.160Z,16.20
2018-09-20T04:14:14.561Z,16.20
2018-09-20T04:16:43.058Z,16.20
2018-09-20T04:19:11.459Z,16.00
2018-09-20T04:21:39.962Z,16.00
2018-09-20T04:24:08.326Z,16.00
2018-09-20T04:26:36.854Z,16.00
2018-09-20T04:29:05.228Z,16.00
2018-09-20T04:31:33.729Z,15.90
2018-09-20T04:34:02.457Z,15.90
2018-09-20T04:36:32.403Z,15.90
2018-09-20T04:39:01.600Z,15.80
2018-09-20T04:41:29.973Z,15.70
2018-09-20T04:43:58.327Z,15.70
2018-09-20T04:46:26.751Z,15.70
2018-09-20T04:48:55.187Z,15.60
2018-09-20T04:51:23.695Z,15.60
2018-09-20T04:53:52.072Z,15.50
2018-09-20T04:56:20.561Z,15.50
2018-09-20T04:58:48.969Z,15.50
2018-09-20T05:01:17.409Z,15.50
2018-09-20T05:03:46.148Z,15.50
2018-09-20T05:06:14.759Z,15.50
2018-09-20T05:08:43.286Z,15.50
2018-09-20T05:11:11.968Z,15.40
2018-09-20T05:13:40.470Z,15.40
2018-09-20T05:16:09.701Z,15.40
2018-09-20T05:18:38.149Z,15.40
2018-09-20T05:21:06.823Z,15.40
2018-09-20T05:23:35.134Z,15.50
2018-09-20T05:26:03.543Z,15.60
2018-09-20T05:28:32.081Z,15.60
2018-09-20T05:31:00.686Z,15.80
2018-09-20T05:33:29.027Z,15.80
2018-09-20T05:35:57.485Z,15.90
2018-09-20T05:38:25.867Z,15.90
2018-09-20T05:40:54.201Z,16.00
2018-09-20T05:43:23.662Z,16.10
2018-09-20T05:45:51.947Z,16.30
2018-09-20T05:48:20.730Z,16.70
2018-09-20T05:50:49.136Z,17.20
2018-09-20T05:53:17.856Z,17.80
2018-09-20T05:55:46.247Z,18.30
2018-09-20T05:58:14.724Z,18.90
2018-09-20T06:00:43.194Z,19.40
2018-09-20T06:03:11.716Z,19.70
2018-09-20T06:05:40.098Z,19.80
2018-09-20T06:08:08.559Z,19.90
2018-09-20T06:10:37.090Z,20.20
2018-09-20T06:13:05.503Z,20.50
2018-09-20T06:15:34.155Z,20.50
2018-09-20T06:18:02.684Z,20.50
2018-09-20T06:20:31.321Z,20.80
2018-09-20T06:22:59.853Z,21.20
2018-09-20T06:25:28.562Z,21.40
2018-09-20T06:27:57.478Z,21.80
2018-09-20T06:30:26.043Z,22.20
2018-09-20T06:32:54.483Z,22.50
2018-09-20T06:35:23.333Z,23.10
2018-09-20T06:37:52.533Z,23.10
2018-09-20T06:40:21.213Z,23.10
2018-09-20T06:42:49.920Z,22.90
2018-09-20T06:45:21.549Z,22.60
2018-09-20T06:47:49.947Z,22.30
2018-09-20T06:50:18.354Z,21.80
2018-09-20T06:52:46.952Z,21.80
2018-09-20T06:55:15.564Z,22.30
2018-09-20T06:57:44.080Z,23.20
2018-09-20T07:00:12.568Z,24.10
2018-09-20T07:02:40.969Z,24.60
2018-09-20T07:05:09.506Z,24.80
2018-09-20T07:07:38.307Z,25.10
2018-09-20T07:10:07.032Z,25.40
2018-09-20T07:12:35.585Z,25.70
2018-09-20T07:15:03.957Z,26.10
2018-09-20T07:17:35.580Z,26.20
2018-09-20T07:20:03.923Z,26.30
2018-09-20T07:22:32.407Z,26.40
2018-09-20T07:25:00.878Z,26.50
2018-09-20T07:27:29.408Z,26.70
2018-09-20T07:29:57.831Z,26.80
2018-09-20T07:32:26.239Z,27.00
2018-09-20T07:34:54.824Z,26.90
2018-09-20T07:37:23.508Z,27.00
2018-09-20T07:39:51.901Z,26.90
2018-09-20T07:42:20.259Z,26.60
2018-09-20T07:44:48.618Z,26.80
2018-09-20T07:47:17.010Z,27.30
2018-09-20T07:49:45.729Z,27.20
2018-09-20T07:52:14.807Z,27.50
2018-09-20T07:54:43.551Z,27.40
2018-09-20T07:57:12.003Z,27.50
2018-09-20T07:59:40.402Z,27.60
2018-09-20T08:02:09.224Z,27.50
2018-09-20T08:04:37.653Z,27.40
2018-09-20T08:07:06.299Z,27.80
2018-09-20T08:09:34.663Z,28.20
2018-09-20T08:12:03.112Z,28.00
2018-09-20T08:14:31.892Z,28.10
2018-09-20T08:17:00.255Z,28.10
2018-09-20T08:19:28.717Z,28.80
2018-09-20T08:21:57.066Z,28.40
2018-09-20T08:24:35.367Z,27.90
2018-09-20T08:27:04.316Z,27.80
2018-09-20T08:29:33.312Z,27.60
2018-09-20T08:32:03.084Z,28.10
2018-09-20T08:34:31.677Z,28.30
2018-09-20T08:37:00.131Z,28.80
2018-09-20T08:39:28.738Z,29.10
2018-09-20T08:41:58.613Z,29.40
2018-09-20T08:44:33.205Z,29.30
2018-09-20T08:47:01.687Z,28.10
2018-09-20T08:49:30.188Z,26.90
2018-09-20T08:51:58.673Z,26.40
2018-09-20T08:54:27.176Z,26.80
2018-09-20T08:56:55.796Z,26.90
2018-09-20T08:59:25.285Z,26.30
2018-09-20T09:01:53.685Z,25.60
2018-09-20T09:04:22.068Z,25.20
2018-09-20T09:06:50.506Z,25.40
2018-09-20T09:09:18.953Z,26.60
2018-09-20T09:11:47.690Z,27.40
2018-09-20T09:14:16.160Z,27.80
2018-09-20T09:16:44.779Z,27.80
2018-09-20T09:19:13.165Z,28.20
2018-09-20T09:21:41.548Z,28.60
2018-09-20T09:24:10.093Z,28.40
2018-09-20T09:26:38.674Z,28.90
2018-09-20T09:29:07.064Z,29.40
2018-09-20T09:31:36.087Z,29.30
2018-09-20T09:34:04.735Z,29.30
2018-09-20T09:36:33.236Z,29.60
2018-09-20T09:39:02.056Z,29.50
2018-09-20T09:41:30.544Z,29.40
2018-09-20T09:43:59.171Z,28.60
2018-09-20T09:46:27.566Z,28.50
2018-09-20T09:48:56.270Z,28.80
2018-09-20T09:51:24.662Z,28.50
2018-09-20T09:53:53.154Z,28.20
2018-09-20T09:56:21.993Z,28.10
2018-09-20T09:58:50.437Z,28.10
2018-09-20T10:01:18.916Z,28.10
2018-09-20T10:03:47.426Z,28.20
2018-09-20T10:06:16.062Z,28.40
2018-09-20T10:08:44.678Z,28.40
2018-09-20T10:11:13.168Z,28.00
2018-09-20T10:13:41.592Z,27.70
2018-09-20T10:16:10.368Z,27.50
2018-09-20T10:18:38.813Z,27.50
2018-09-20T10:21:07.310Z,27.60
2018-09-20T10:23:36.691Z,27.30
2018-09-20T10:26:05.698Z,27.20
2018-09-20T10:28:35.120Z,27.20
2018-09-20T10:31:04.321Z,26.80
2018-09-20T10:33:32.768Z,27.10
2018-09-20T10:36:01.110Z,27.60
2018-09-20T10:38:29.835Z,27.70
2018-09-20T10:40:58.275Z,27.80
2018-09-20T10:43:26.746Z,27.60
2018-09-20T10:45:55.703Z,27.50
2018-09-20T10:48:24.533Z,27.40
2018-09-20T10:50:53.145Z,27.40
2018-09-20T10:53:21.530Z,27.60
2018-09-20T10:55:49.996Z,27.60
2018-09-20T10:58:18.474Z,27.50
2018-09-20T11:00:46.983Z,27.60
2018-09-20T11:03:15.775Z,27.60
2018-09-20T11:05:44.211Z,27.60
2018-09-20T11:08:13.013Z,27.60
2018-09-20T11:10:41.828Z,27.60
2018-09-20T11:13:10.182Z,27.40
2018-09-20T11:15:38.617Z,27.50
2018-09-20T11:18:07.807Z,27.40
2018-09-20T11:20:36.232Z,27.40
2018-09-20T11:23:05.488Z,27.40
2018-09-20T11:25:33.819Z,27.60
2018-09-20T11:28:02.906Z,27.50
2018-09-20T11:30:31.644Z,27.60
2018-09-20T11:33:00.343Z,27.60
2018-09-20T11:35:29.289Z,27.20
2018-09-20T11:37:57.789Z,26.90
2018-09-20T11:40:26.411Z,26.90
2018-09-20T11:42:55.878Z,26.80
2018-09-20T11:45:24.646Z,27.20
2018-09-20T11:47:53.760Z,27.50
2018-09-20T11:50:24.408Z,27.70
2018-09-20T11:52:52.790Z,27.70
2018-09-20T11:55:22.802Z,27.80
2018-09-20T11:57:51.415Z,27.70
2018-09-20T12:00:20.999Z,28.20
2018-09-20T12:02:53.525Z,28.30
2018-09-20T12:05:22.655Z,28.10
2018-09-20T12:07:53.063Z,28.60
2018-09-20T12:10:21.730Z,29.40
2018-09-20T12:12:50.310Z,29.50
2018-09-20T12:15:20.089Z,29.30
2018-09-20T12:17:49.266Z,28.80
2018-09-20T12:20:17.826Z,28.40
2018-09-20T12:22:46.346Z,28.40
2018-09-20T12:25:14.708Z,28.40
2018-09-20T12:27:44.126Z,28.50
2018-09-20T12:30:13.421Z,28.70
2018-09-20T12:32:43.124Z,28.90
2018-09-20T12:35:11.576Z,28.50
2018-09-20T12:37:40.213Z,28.40
2018-09-20T12:40:09.850Z,27.90
2018-09-20T12:42:39.415Z,27.50
2018-09-20T12:45:07.813Z,27.30
2018-09-20T12:47:36.794Z,27.10
2018-09-20T12:50:06.178Z,27.20
2018-09-20T12:52:34.928Z,27.60
2018-09-20T12:55:03.777Z,27.70
2018-09-20T12:57:32.393Z,27.90
2018-09-20T13:00:00.943Z,28.70
2018-09-20T13:02:30.192Z,29.30
2018-09-20T13:04:59.453Z,29.50
2018-09-20T13:07:27.975Z,29.50
2018-09-20T13:10:49.675Z,29.40
2018-09-20T13:13:20.716Z,29.70
2018-09-20T13:15:50.552Z,29.90
2018-09-20T13:18:19.910Z,29.80
2018-09-20T13:20:48.388Z,29.90
2018-09-20T13:23:16.835Z,29.70
2018-09-20T13:25:45.346Z,29.60
2018-09-20T13:28:15.154Z,29.60
2018-09-20T13:30:45.756Z,29.60
2018-09-20T13:33:14.372Z,29.70
2018-09-20T13:35:43.097Z,29.80
2018-09-20T13:38:11.661Z,29.80
2018-09-20T13:40:40.167Z,30.10
2018-09-20T13:43:08.649Z,29.60
2018-09-20T13:45:37.227Z,28.80
2018-09-20T13:48:05.723Z,28.10
2018-09-20T13:50:37.197Z,27.80
2018-09-20T13:53:05.723Z,27.60
2018-09-20T13:55:34.134Z,27.40
2018-09-20T13:58:02.627Z,27.30
2018-09-20T14:00:31.875Z,27.10
2018-09-20T14:03:00.299Z,27.20
2018-09-20T14:05:28.748Z,27.30
2018-09-20T14:07:57.612Z,27.30
2018-09-20T14:10:28.686Z,27.70
2018-09-20T14:12:57.417Z,28.20
2018-09-20T14:15:25.891Z,28.60
2018-09-20T14:17:54.409Z,28.50
2018-09-20T14:20:22.811Z,28.70
2018-09-20T14:22:51.240Z,28.50
2018-09-20T14:25:19.971Z,28.60
2018-09-20T14:27:48.376Z,28.30
2018-09-20T14:30:16.930Z,28.00
2018-09-20T14:32:45.476Z,27.70
2018-09-20T14:35:13.965Z,27.40
2018-09-20T14:37:42.445Z,27.20
2018-09-20T14:40:11.018Z,27.10
2018-09-20T14:42:39.561Z,27.00
2018-09-20T14:45:08.337Z,26.90
2018-09-20T14:47:36.834Z,26.90
2018-09-20T14:50:05.944Z,26.90
2018-09-20T14:52:34.719Z,26.90
2018-09-20T14:55:03.099Z,26.90
2018-09-20T14:57:31.483Z,26.80
2018-09-20T15:00:00.054Z,26.80
2018-09-20T15:02:28.509Z,26.70
2018-09-20T15:04:56.999Z,26.70
2018-09-20T15:07:25.447Z,26.80
2018-09-20T15:09:54.707Z,26.70
2018-09-20T15:12:23.287Z,26.60
2018-09-20T15:14:51.758Z,26.60
2018-09-20T15:17:20.256Z,26.50
2018-09-20T15:19:48.870Z,26.50
2018-09-20T15:22:17.314Z,26.40
2018-09-20T15:24:45.893Z,26.40
2018-09-20T15:27:15.241Z,26.50
2018-09-20T15:29:43.659Z,26.50
2018-09-20T15:32:12.213Z,26.40
2018-09-20T15:34:41.319Z,26.30
2018-09-20T15:37:09.676Z,26.30
2018-09-20T15:39:40.257Z,26.20
2018-09-20T15:42:08.753Z,26.20
2018-09-20T15:44:37.717Z,26.20
2018-09-20T15:47:06.164Z,26.10
2018-09-20T15:49:34.812Z,26.10
2018-09-20T15:52:03.224Z,26.10
2018-09-20T15:54:31.745Z,26.10
2018-09-20T15:57:00.354Z,26.10
2018-09-20T15:59:28.868Z,26.00
2018-09-20T16:01:57.251Z,26.00
2018-09-20T16:04:25.729Z,25.90
2018-09-20T16:06:54.393Z,25.90
2018-09-20T16:09:22.917Z,25.90
2018-09-20T16:11:51.683Z,25.80
2018-09-20T16:14:20.106Z,25.80
2018-09-20T16:16:48.721Z,25.80
2018-09-20T16:19:17.152Z,25.80
2018-09-20T16:21:45.591Z,25.70
2018-09-20T16:24:14.138Z,25.70
2018-09-20T16:26:43.172Z,25.60
2018-09-20T16:29:19.039Z,25.60
2018-09-20T16:31:57.120Z,25.70
2018-09-20T16:34:34.303Z,25.60
2018-09-20T16:37:12.218Z,25.50
2018-09-20T16:39:42.938Z,25.50
2018-09-20T16:42:11.810Z,25.50
2018-09-20T16:44:40.247Z,25.50
2018-09-20T16:47:08.889Z,25.40
2018-09-20T16:49:37.302Z,25.30
2018-09-20T16:52:05.657Z,25.20
2018-09-20T16:54:34.115Z,25.20
2018-09-20T16:57:02.575Z,25.20
2018-09-20T16:59:31.029Z,25.00
2018-09-20T17:01:59.588Z,24.90
2018-09-20T17:04:28.765Z,24.80
2018-09-20T17:06:57.489Z,24.70
2018-09-20T17:09:26.022Z,24.60
2018-09-20T17:11:54.524Z,24.60
2018-09-20T17:14:23.055Z,24.50
2018-09-20T17:16:51.478Z,24.40
2018-09-20T17:19:19.903Z,24.40
2018-09-20T17:21:48.400Z,24.30
2018-09-20T17:24:16.744Z,24.20
2018-09-20T17:26:45.140Z,24.10
2018-09-20T17:29:13.929Z,24.00
2018-09-20T17:31:43.475Z,23.90
2018-09-20T17:34:14.817Z,23.80
2018-09-20T17:36:44.783Z,23.70
2018-09-20T17:39:13.832Z,23.60
2018-09-20T17:41:44.016Z,23.50
2018-09-20T17:44:12.790Z,23.50
2018-09-20T17:46:41.264Z,23.50
2018-09-20T17:49:09.848Z,23.40
2018-09-20T17:51:39.511Z,23.40
2018-09-20T17:54:08.280Z,23.30
2018-09-20T17:56:36.839Z,23.20
2018-09-20T17:59:05.677Z,23.10
2018-09-20T18:01:34.102Z,23.00
2018-09-20T18:04:02.627Z,23.00
2018-09-20T18:06:31.206Z,22.90
2018-09-20T18:08:59.581Z,22.80
2018-09-20T18:11:28.104Z,22.70
2018-09-20T18:13:56.581Z,22.70
2018-09-20T18:16:25.087Z,22.70
2018-09-20T18:18:53.596Z,22.60
2018-09-20T18:21:22.042Z,22.60
2018-09-20T18:23:50.531Z,22.50
2018-09-20T18:26:18.858Z,22.40
2018-09-20T18:28:47.676Z,22.40
2018-09-20T18:31:16.156Z,22.30
2018-09-20T18:33:45.023Z,22.20
2018-09-20T18:36:13.476Z,22.10
2018-09-20T18:38:42.043Z,22.20
2018-09-20T18:41:10.578Z,22.10
2018-09-20T18:43:39.809Z,22.00
2018-09-20T18:46:08.222Z,22.00
2018-09-20T18:48:36.609Z,21.90
2018-09-20T18:51:05.312Z,21.80
2018-09-20T18:53:33.673Z,21.60
2018-09-20T18:56:02.123Z,21.50
2018-09-20T18:58:30.640Z,21.40
2018-09-20T19:00:59.175Z,21.50
2018-09-20T19:03:27.657Z,21.40
2018-09-20T19:05:56.215Z,21.40
2018-09-20T19:08:24.706Z,21.30
2018-09-20T19:10:53.662Z,21.30
2018-09-20T19:13:22.147Z,21.10
2018-09-20T19:15:50.508Z,21.10
2018-09-20T19:18:19.021Z,21.00
2018-09-20T19:20:47.484Z,20.90
2018-09-20T19:23:15.871Z,21.00
2018-09-20T19:25:44.507Z,20.90
2018-09-20T19:28:12.946Z,20.90
2018-09-20T19:30:41.547Z,21.10
2018-09-20T19:33:10.077Z,21.30
2018-09-20T19:35:38.769Z,21.40
2018-09-20T19:38:07.301Z,21.40
2018-09-20T19:40:35.653Z,21.40
2018-09-20T19:43:04.091Z,21.40
2018-09-20T19:45:32.686Z,21.40
2018-09-20T19:48:01.486Z,21.40
2018-09-20T19:50:29.841Z,21.30
2018-09-20T19:52:58.252Z,21.30
2018-09-20T19:55:26.745Z,21.30
2018-09-20T19:57:55.095Z,21.20
2018-09-20T20:00:23.610Z,21.30
2018-09-20T20:02:52.211Z,21.30
2018-09-20T20:05:20.569Z,21.30
2018-09-20T20:07:49.118Z,21.20
2018-09-20T20:10:17.666Z,21.20
2018-09-20T20:12:46.064Z,21.10
2018-09-20T20:15:14.758Z,21.10
2018-09-20T20:17:43.121Z,21.00
2018-09-20T20:20:11.509Z,20.90
2018-09-20T20:22:39.941Z,20.80
2018-09-20T20:25:08.361Z,20.70
2018-09-20T20:27:36.998Z,20.60
2018-09-20T20:30:06.139Z,20.60
2018-09-20T20:32:34.664Z,20.60
2018-09-20T20:35:03.143Z,20.60
2018-09-20T20:37:31.577Z,20.50
2018-09-20T20:39:59.892Z,20.50
2018-09-20T20:42:28.275Z,20.40
2018-09-20T20:44:56.662Z,20.40
2018-09-20T20:47:25.078Z,20.40
2018-09-20T20:49:53.677Z,20.30
2018-09-20T20:52:22.164Z,20.30
2018-09-20T20:54:50.597Z,20.30
2018-09-20T20:57:18.955Z,20.10
2018-09-20T20:59:47.480Z,20.10
2018-09-20T21:02:15.952Z,20.10
2018-09-20T21:04:44.354Z,20.00
2018-09-20T21:07:12.763Z,20.00
2018-09-20T21:09:41.503Z,20.00
2018-09-20T21:12:10.060Z,19.90
2018-09-20T21:14:38.497Z,19.90
2018-09-20T21:17:07.172Z,19.90
2018-09-20T21:19:36.003Z,19.90
2018-09-20T21:22:04.378Z,19.90
2018-09-20T21:24:32.787Z,19.90
2018-09-20T21:27:01.925Z,19.90
2018-09-20T21:29:30.266Z,19.90
2018-09-20T21:31:58.789Z,20.00
2018-09-20T21:34:27.147Z,20.00
2018-09-20T21:36:55.561Z,20.00
2018-09-20T21:39:23.988Z,20.10
2018-09-20T21:41:52.408Z,20.10
2018-09-20T21:44:20.740Z,20.10
2018-09-20T21:46:49.989Z,20.10
2018-09-20T21:49:18.399Z,20.10
2018-09-20T21:51:46.719Z,20.10
2018-09-20T21:54:15.091Z,20.10
2018-09-20T21:56:43.401Z,20.10
2018-09-20T21:59:11.986Z,20.10
2018-09-20T22:01:44.415Z,20.10
2018-09-20T22:04:12.836Z,20.10
2018-09-20T22:06:41.310Z,20.20
2018-09-20T22:09:11.139Z,20.20
2018-09-20T22:11:40.077Z,20.20
2018-09-20T22:14:08.530Z,20.20
2018-09-20T22:16:37.343Z,20.20
2018-09-20T22:19:05.925Z,20.10
2018-09-20T22:21:34.661Z,20.20
2018-09-20T22:24:03.098Z,20.20
2018-09-20T22:26:31.476Z,20.20
2018-09-20T22:28:59.852Z,20.20
2018-09-20T22:31:28.344Z,20.20
2018-09-20T22:33:56.762Z,20.20
2018-09-20T22:36:25.109Z,20.20
2018-09-20T22:38:53.421Z,20.20
2018-09-20T22:41:21.854Z,20.20
2018-09-20T22:43:50.228Z,20.10
2018-09-20T22:46:18.752Z,20.10
2018-09-20T22:48:47.120Z,20.10
2018-09-20T22:51:15.420Z,20.10
2018-09-20T22:53:43.737Z,20.10
2018-09-20T22:56:12.082Z,20.00
2018-09-20T22:58:40.336Z,20.00
2018-09-20T23:01:08.685Z,20.10
2018-09-20T23:03:37.074Z,20.10
2018-09-20T23:06:05.702Z,20.10
2018-09-20T23:08:34.065Z,20.10
2018-09-20T23:11:02.947Z,20.30
2018-09-20T23:13:31.322Z,20.30
2018-09-20T23:15:59.667Z,20.50
2018-09-20T23:18:28.090Z,20.50
2018-09-20T23:20:56.484Z,20.40
2018-09-20T23:23:24.830Z,20.40
2018-09-20T23:25:53.248Z,20.40
2018-09-20T23:28:21.665Z,20.30
2018-09-20T23:30:50.369Z,20.30
2018-09-20T23:33:18.736Z,20.20
2018-09-20T23:35:47.051Z,20.10
2018-09-20T23:38:15.395Z,20.00
2018-09-20T23:40:43.752Z,20.00
2018-09-20T23:43:12.142Z,19.90
2018-09-20T23:45:40.692Z,19.90
2018-09-20T23:48:09.060Z,19.90
2018-09-20T23:50:37.403Z,19.80
2018-09-20T23:53:05.791Z,19.80
2018-09-20T23:55:34.134Z,19.90
2018-09-20T23:58:02.763Z,19.80
